Time;durP1;ratioP1;P1;durP2;ratioP2;P2;SDS_P1;SDS_P2;PMS_P1;PMS_P2;Temp;Humidity;BMP_temperature;BMP_pressure;BME280_temperature;BME280_humidity;BME280_pressure;Samples;Min_cycle;Max_cycle;Signal;HPM_P1;HPM_P2
2022/06/25 00:01:54;;;;;;;3.52;3.00;;;;;;;18.99;71.05;99955.36;1715345;81;21017;-79
2022/06/25 00:07:07;;;;;;;5.17;3.08;;;;;;;18.98;71.12;99959.05;1701774;81;21102;-79
2022/06/25 00:09:34;;;;;;;5.47;2.70;;;;;;;18.98;71.16;99952.88;1713320;81;21840;-80
2022/06/25 00:14:45;;;;;;;3.65;3.10;;;;;;;18.98;71.17;99954.20;1719004;83;20881;-80
2022/06/25 00:17:12;;;;;;;3.02;2.72;;;;;;;18.99;71.14;99949.17;1719879;81;21100;-79
2022/06/25 00:19:38;;;;;;;4.78;2.90;;;;;;;19.01;71.07;99953.83;1716358;81;21099;-80
2022/06/25 00:22:05;;;;;;;4.30;3.10;;;;;;;19.02;71.12;99952.84;1702974;81;22338;-79
2022/06/25 00:24:31;;;;;;;8.98;2.80;;;;;;;19.01;71.15;99951.15;1724820;81;21009;-79
2022/06/25 00:26:58;;;;;;;5.25;3.02;;;;;;;19.00;71.16;99949.49;1721425;81;20972;-80
2022/06/25 00:29:24;;;;;;;4.78;3.10;;;;;;;19.00;71.24;99945.48;1720150;81;20960;-79
2022/06/25 00:31:50;;;;;;;5.08;2.98;;;;;;;18.99;71.28;99942.48;1723813;81;21043;-79
2022/06/25 00:34:17;;;;;;;4.75;3.15;;;;;;;18.98;71.30;99942.16;1736358;81;21792;-78
2022/06/25 00:36:43;;;;;;;3.40;2.90;;;;;;;18.97;71.30;99940.51;1722253;81;20980;-79
2022/06/25 00:39:10;;;;;;;5.67;3.05;;;;;;;18.97;71.31;99934.64;1730530;81;21016;-79
2022/06/25 00:41:36;;;;;;;3.33;3.00;;;;;;;18.96;71.29;99936.17;1718990;83;21418;-79
2022/06/25 00:44:07;;;;;;;3.50;2.60;;;;;;;18.95;71.32;99925.16;1721585;81;21448;-79
2022/06/25 00:46:34;;;;;;;3.58;2.98;;;;;;;18.95;71.38;99935.34;1722793;81;22631;-80
2022/06/25 00:49:08;;;;;;;3.20;2.90;;;;;;;18.94;71.43;99937.70;1722248;81;21438;-79
2022/06/25 00:51:34;;;;;;;3.58;2.90;;;;;;;18.92;71.45;99938.92;1725071;81;21449;-79
2022/06/25 00:54:08;;;;;;;4.65;3.30;;;;;;;18.92;71.53;99937.58;1720775;82;20985;-79
2022/06/25 00:56:37;;;;;;;3.65;3.30;;;;;;;18.91;71.59;99938.05;1721677;81;22575;-79
2022/06/25 00:59:05;;;;;;;4.12;2.83;;;;;;;18.90;71.69;99936.40;1721854;81;21935;-79
2022/06/25 01:01:34;;;;;;;3.58;2.70;;;;;;;18.88;71.74;99933.91;1720914;81;21439;-79
2022/06/25 01:04:01;;;;;;;3.87;2.95;;;;;;;18.88;71.77;99933.91;1710380;81;21016;-79
2022/06/25 01:06:28;;;;;;;3.40;3.02;;;;;;;18.90;71.75;99931.05;1719989;81;20972;-79
2022/06/25 01:08:57;;;;;;;4.10;2.70;;;;;;;18.90;71.76;99931.05;1724371;81;21469;-80
2022/06/25 01:11:26;;;;;;;3.92;3.08;;;;;;;18.90;71.77;99922.19;1721468;81;21950;-80
2022/06/25 01:13:53;;;;;;;3.50;2.75;;;;;;;18.89;71.76;99929.39;1718029;81;21024;-79
2022/06/25 01:16:21;;;;;;;6.15;2.77;;;;;;;18.89;71.84;99924.04;1687877;82;21033;-79
2022/06/25 01:18:49;;;;;;;3.33;2.95;;;;;;;18.88;71.89;99930.41;1698314;83;21130;-79
2022/06/25 01:21:15;;;;;;;4.45;3.30;;;;;;;18.87;71.95;99930.09;1720957;81;20974;-80
2022/06/25 01:23:42;;;;;;;4.50;3.10;;;;;;;18.87;72.03;99929.58;1717648;83;21822;-79
2022/06/25 01:26:08;;;;;;;5.58;2.80;;;;;;;18.89;72.06;99930.73;1721292;81;21112;-81
2022/06/25 01:28:36;;;;;;;4.25;3.00;;;;;;;18.90;72.09;99938.25;1723197;81;21435;-79
2022/06/25 01:31:02;;;;;;;3.37;2.77;;;;;;;18.88;72.13;99931.23;1731492;81;21020;-80
2022/06/25 01:33:30;;;;;;;8.00;3.20;;;;;;;18.87;72.13;99928.25;1720993;83;21025;-79
2022/06/25 01:35:57;;;;;;;3.83;3.10;;;;;;;18.87;72.22;99930.09;1725796;81;22540;-79
2022/06/25 01:38:25;;;;;;;6.10;3.15;;;;;;;18.85;72.35;99928.94;1732452;81;20948;-80
2022/06/25 01:40:53;;;;;;;6.03;3.02;;;;;;;18.82;72.48;99923.14;1720741;81;21169;-81
2022/06/25 01:43:21;;;;;;;3.72;3.10;;;;;;;18.79;72.54;99921.65;1704984;83;21023;-79
2022/06/25 01:45:47;;;;;;;3.20;2.90;;;;;;;18.76;72.61;99920.70;1720358;82;20996;-80
2022/06/25 01:48:14;;;;;;;4.03;3.20;;;;;;;18.75;72.69;99925.73;1724172;81;21864;-80
2022/06/25 01:50:40;;;;;;;5.78;3.20;;;;;;;18.72;72.75;99926.11;1720820;81;20992;-79
2022/06/25 01:53:07;;;;;;;4.45;3.27;;;;;;;18.74;72.79;99926.75;1718000;82;21417;-79
2022/06/25 01:55:34;;;;;;;3.52;2.87;;;;;;;18.74;72.83;99931.27;1728133;81;20968;-80
2022/06/25 01:58:01;;;;;;;4.60;3.45;;;;;;;18.72;72.91;99935.47;1706573;81;21141;-80
2022/06/25 02:00:29;;;;;;;3.72;3.40;;;;;;;18.70;72.98;99943.34;1716884;82;21958;-79
2022/06/25 02:02:58;;;;;;;4.28;3.40;;;;;;;18.69;73.09;99951.04;1723990;83;20973;-80
2022/06/25 02:08:15;;;;;;;3.60;3.30;;;;;;;18.62;73.22;99944.73;1722996;81;21016;-80
2022/06/25 02:10:44;;;;;;;5.35;3.50;;;;;;;18.58;73.35;99946.44;1739257;81;21008;-79
2022/06/25 02:13:10;;;;;;;5.50;3.33;;;;;;;18.55;73.45;99948.66;1717825;81;21896;-79
2022/06/25 02:15:38;;;;;;;4.00;3.50;;;;;;;18.51;73.65;99944.68;1721914;81;21058;-79
2022/06/25 02:18:04;;;;;;;4.90;3.20;;;;;;;18.47;73.82;99949.58;1714468;81;21070;-79
2022/06/25 02:20:31;;;;;;;5.40;3.20;;;;;;;18.45;73.96;99953.45;1724317;83;21072;-80
2022/06/25 02:22:58;;;;;;;3.98;3.45;;;;;;;18.44;74.00;99957.97;1693800;84;21490;-79
2022/06/25 02:25:24;;;;;;;4.08;3.17;;;;;;;18.45;74.03;99960.97;1733079;81;21830;-79
2022/06/25 02:27:51;;;;;;;3.40;3.10;;;;;;;18.45;73.99;99960.97;1731992;81;21009;-80
2022/06/25 02:30:18;;;;;;;3.62;3.10;;;;;;;18.45;74.00;99955.63;1729608;81;20993;-80
2022/06/25 02:32:44;;;;;;;4.70;3.20;;;;;;;18.46;73.96;99957.78;1717408;81;20972;-79
2022/06/25 02:35:11;;;;;;;4.45;3.05;;;;;;;18.46;73.95;99962.63;1728376;83;21058;-80
2022/06/25 02:37:38;;;;;;;6.70;3.47;;;;;;;18.46;73.92;99963.97;1724570;81;21812;-80
2022/06/25 02:40:07;;;;;;;3.52;3.22;;;;;;;18.47;73.91;99965.63;1719568;81;20972;-77
2022/06/25 02:42:37;;;;;;;8.25;3.22;;;;;;;18.45;73.91;99966.83;1707102;83;21009;-79
2022/06/25 02:45:06;;;;;;;4.55;3.30;;;;;;;18.45;73.86;99963.64;1724224;83;21182;-79
2022/06/25 02:47:32;;;;;;;5.37;3.42;;;;;;;18.45;73.84;99970.84;1724072;81;21395;-79
2022/06/25 02:50:01;;;;;;;3.30;3.00;;;;;;;18.44;73.85;99966.50;1724566;81;21851;-79
2022/06/25 02:52:27;;;;;;;4.60;3.27;;;;;;;18.43;73.88;99967.02;1731537;81;20974;-79
2022/06/25 02:54:54;;;;;;;5.10;3.00;;;;;;;18.40;73.87;99974.04;1727794;82;20985;-79
2022/06/25 03:00:08;;;;;;;7.87;3.50;;;;;;;18.39;73.83;99975.05;1732732;81;20952;-79
2022/06/25 03:02:35;;;;;;;3.87;3.30;;;;;;;18.38;73.81;99980.59;1726763;81;21852;-80
2022/06/25 03:05:02;;;;;;;3.92;3.47;;;;;;;18.36;73.81;99979.44;1724025;83;20988;-79
2022/06/25 03:07:29;;;;;;;4.87;3.42;;;;;;;18.36;73.89;99982.11;1727948;81;21000;-80
2022/06/25 03:09:58;;;;;;;4.05;3.58;;;;;;;18.37;73.94;99982.94;1723719;81;21268;-80
2022/06/25 03:12:25;;;;;;;7.08;3.77;;;;;;;18.38;73.88;99984.09;1689452;83;20987;-80
2022/06/25 03:14:53;;;;;;;6.33;3.70;;;;;;;18.39;73.86;99990.27;1722432;83;21856;-79
2022/06/25 03:17:21;;;;;;;5.08;3.45;;;;;;;18.39;73.86;99990.27;1723903;81;21019;-80
2022/06/25 03:19:49;;;;;;;3.58;3.27;;;;;;;18.41;73.83;99992.25;1718325;81;21083;-80
2022/06/25 03:22:17;;;;;;;3.20;2.90;;;;;;;18.42;73.77;99988.05;1721451;83;21009;-80
2022/06/25 03:24:44;;;;;;;4.12;3.20;;;;;;;18.46;73.72;99989.88;1722103;81;21004;-80
2022/06/25 03:27:10;;;;;;;5.33;3.17;;;;;;;18.50;73.75;99993.33;1698823;81;21890;-80
2022/06/25 03:29:37;;;;;;;4.85;3.20;;;;;;;18.55;73.79;99982.92;1723085;81;20961;-80
2022/06/25 03:32:06;;;;;;;4.47;3.30;;;;;;;18.59;73.67;99998.92;1717127;83;20964;-79
2022/06/25 03:34:50;;;;;;;4.47;3.10;;;;;;;18.65;73.55;99997.91;1630459;87;21106;-80
2022/06/25 03:37:17;;;;;;;5.28;3.30;;;;;;;18.71;73.41;100002.00;1672600;83;20952;-79
2022/06/25 03:39:44;;;;;;;5.75;3.22;;;;;;;18.77;73.21;100000.45;1709246;83;22462;-79
2022/06/25 03:42:10;;;;;;;3.90;3.55;;;;;;;18.83;73.06;100002.41;1706705;83;20923;-79
2022/06/25 03:44:39;;;;;;;4.28;3.22;;;;;;;18.87;72.87;99995.14;1705675;82;21046;-78
2022/06/25 03:47:13;;;;;;;3.92;3.30;;;;;;;18.92;72.70;100003.97;1692711;82;21080;-78
2022/06/25 03:49:40;;;;;;;4.95;3.30;;;;;;;18.95;72.39;100004.93;1685382;82;21079;-78
2022/06/25 03:52:08;;;;;;;4.08;3.05;;;;;;;18.95;72.23;100006.27;1684925;82;21855;-78
2022/06/25 03:54:37;;;;;;;4.67;3.30;;;;;;;18.99;72.09;100009.39;1693791;82;21423;-79
2022/06/25 03:57:05;;;;;;;4.85;3.10;;;;;;;19.02;72.01;100009.87;1704914;82;21472;-81
2022/06/25 03:59:36;;;;;;;3.90;3.30;;;;;;;19.04;71.88;100008.34;1716167;82;20972;-81
2022/06/25 04:02:05;;;;;;;4.28;3.15;;;;;;;19.07;71.80;100011.98;1724240;82;20996;-81
2022/06/25 04:04:34;;;;;;;6.10;3.50;;;;;;;19.08;71.71;100013.13;1715347;83;22279;-81
2022/06/25 04:07:01;;;;;;;4.67;3.40;;;;;;;19.10;71.66;100016.45;1721091;82;21020;-81
2022/06/25 04:09:27;;;;;;;4.78;3.30;;;;;;;19.12;71.61;100021.13;1696639;82;21019;-80
2022/06/25 04:11:54;;;;;;;4.55;3.35;;;;;;;19.16;71.43;100028.27;1709217;83;21059;-80
2022/06/25 04:14:21;;;;;;;4.58;3.42;;;;;;;19.18;71.37;100028.91;1672533;83;21068;-81
2022/06/25 04:16:49;;;;;;;5.28;3.30;;;;;;;19.23;71.34;100031.88;1685762;83;21932;-81
2022/06/25 04:19:17;;;;;;;5.60;3.67;;;;;;;19.26;70.88;100028.81;1709842;82;21367;-81
2022/06/25 04:21:47;;;;;;;3.62;3.12;;;;;;;19.30;70.83;100023.91;1704145;82;20878;-81
2022/06/25 04:24:13;;;;;;;7.95;3.47;;;;;;;19.34;70.80;100022.53;1710256;82;21076;-81
2022/06/25 04:26:39;;;;;;;4.35;3.40;;;;;;;19.40;70.57;100026.64;1712257;83;21086;-82
2022/06/25 04:29:08;;;;;;;4.20;3.08;;;;;;;19.46;70.47;100023.70;1661140;85;21931;-81
2022/06/25 04:31:44;;;;;;;4.50;3.12;;;;;;;19.51;70.21;100030.68;1682582;84;20926;-81
2022/06/25 04:34:12;;;;;;;3.72;3.37;;;;;;;19.52;69.84;100033.68;1702514;83;21016;-81
2022/06/25 04:36:39;;;;;;;3.67;3.10;;;;;;;19.52;69.72;100039.03;1687373;83;21054;-81
2022/06/25 04:39:10;;;;;;;3.35;3.05;;;;;;;19.54;69.59;100042.86;1722464;83;21028;-81
2022/06/25 04:41:37;;;;;;;4.08;3.30;;;;;;;19.52;69.13;100036.36;1702814;83;21521;-81
2022/06/25 04:44:06;;;;;;;4.50;3.30;;;;;;;19.52;69.18;100036.87;1690369;83;21028;-81
2022/06/25 04:46:32;;;;;;;4.15;3.35;;;;;;;19.57;69.37;100041.17;1688314;82;21431;-81
2022/06/25 04:48:59;;;;;;;4.25;3.00;;;;;;;19.64;69.24;100039.41;1716024;82;21514;-82
2022/06/25 04:51:28;;;;;;;6.17;3.22;;;;;;;19.71;69.23;100042.48;1721043;82;21400;-81
2022/06/25 04:53:56;;;;;;;5.40;3.08;;;;;;;19.81;69.11;100044.03;1726076;82;21969;-81
2022/06/25 04:56:34;;;;;;;3.87;2.90;;;;;;;19.91;69.11;100038.68;1729994;82;21045;-80
2022/06/25 04:59:00;;;;;;;5.20;2.77;;;;;;;20.03;68.47;100044.88;1709491;82;21005;-82
2022/06/25 05:01:33;;;;;;;6.10;3.03;;;;;;;20.06;67.58;100047.98;1724898;82;21451;-82
2022/06/25 05:03:59;;;;;;;4.65;3.10;;;;;;;20.08;67.07;100049.16;1725100;82;21032;-82
2022/06/25 05:06:26;;;;;;;4.70;2.95;;;;;;;20.10;66.69;100052.48;1682973;83;21927;-82
2022/06/25 05:08:53;;;;;;;3.52;2.80;;;;;;;20.11;66.45;100057.64;1680827;83;21028;-84
2022/06/25 05:11:21;;;;;;;6.30;2.90;;;;;;;20.14;66.64;100067.15;1705666;82;21040;-82
2022/06/25 05:13:49;;;;;;;3.83;3.00;;;;;;;20.17;66.82;100066.28;1713839;82;20947;-81
2022/06/25 05:16:17;;;;;;;3.95;2.87;;;;;;;20.19;66.64;100071.44;1710100;82;21548;-81
2022/06/25 05:18:44;;;;;;;4.05;3.02;;;;;;;20.20;66.75;100072.59;1714724;81;22547;-81
2022/06/25 05:21:11;;;;;;;3.42;3.05;;;;;;;20.25;66.74;100067.98;1733856;81;20981;-81
2022/06/25 05:23:37;;;;;;;3.27;2.70;;;;;;;20.29;66.78;100074.13;1716680;81;20975;-81
2022/06/25 05:26:04;;;;;;;4.75;2.98;;;;;;;20.35;66.89;100073.02;1720295;81;20959;-81
2022/06/25 05:28:30;;;;;;;4.72;2.98;;;;;;;20.43;66.78;100074.27;1743370;81;21008;-81
2022/06/25 05:30:57;;;;;;;3.85;2.95;;;;;;;20.50;66.63;100074.64;1735179;81;21820;-81
2022/06/25 05:33:24;;;;;;;5.20;3.20;;;;;;;20.61;66.69;100077.83;1731268;81;20951;-81
2022/06/25 05:35:51;;;;;;;5.78;3.17;;;;;;;20.69;66.29;100077.17;1716271;81;21102;-81
2022/06/25 05:38:17;;;;;;;5.25;3.30;;;;;;;20.77;66.08;100090.97;1748641;80;21000;-81
2022/06/25 05:40:44;;;;;;;3.58;3.02;;;;;;;20.79;65.40;100090.25;1749761;80;20962;-82
2022/06/25 05:43:11;;;;;;;9.15;3.30;;;;;;;20.78;65.29;100093.97;1744460;80;22564;-82
2022/06/25 05:45:37;;;;;;;5.53;2.95;;;;;;;20.78;65.42;100091.28;1744334;82;21326;-82
2022/06/25 05:48:04;;;;;;;10.08;3.20;;;;;;;20.77;65.41;100090.45;1755619;80;21423;-82
2022/06/25 05:50:31;;;;;;;3.10;2.80;;;;;;;20.81;65.42;100093.56;1752790;80;21036;-81
2022/06/25 05:52:58;;;;;;;6.30;2.98;;;;;;;20.88;65.63;100089.09;1748334;80;21440;-82
2022/06/25 05:55:25;;;;;;;2.90;2.60;;;;;;;20.93;65.49;100093.34;1749890;80;21841;-82
2022/06/25 05:57:52;;;;;;;3.05;2.62;;;;;;;20.99;65.59;100097.94;1750155;80;21032;-81
2022/06/25 06:00:18;;;;;;;3.83;2.80;;;;;;;21.02;65.33;100101.56;1756136;80;21466;-80
2022/06/25 06:02:45;;;;;;;4.97;3.02;;;;;;;21.06;65.15;100094.80;1773716;80;21506;-81
2022/06/25 06:05:12;;;;;;;4.90;2.83;;;;;;;21.08;64.95;100091.39;1769520;80;20988;-81
2022/06/25 06:07:38;;;;;;;3.98;2.52;;;;;;;21.09;64.78;100098.93;1714078;81;21783;-81
2022/06/25 06:10:07;;;;;;;4.58;2.87;;;;;;;21.13;65.18;100098.36;1747825;80;21043;-81
2022/06/25 06:12:34;;;;;;;4.95;2.85;;;;;;;21.21;64.99;100100.03;1737607;80;21041;-81
2022/06/25 06:15:00;;;;;;;3.60;2.83;;;;;;;21.30;65.08;100096.19;1777881;80;21010;-81
2022/06/25 06:17:27;;;;;;;3.05;2.77;;;;;;;21.44;64.92;100099.80;1764521;80;21038;-81
2022/06/25 06:19:54;;;;;;;5.42;2.85;;;;;;;21.55;64.65;100103.26;1748195;80;21834;-81
2022/06/25 06:22:21;;;;;;;4.47;2.83;;;;;;;21.70;64.54;100104.45;1715407;81;21016;-82
2022/06/25 06:24:47;;;;;;;4.28;2.72;;;;;;;21.79;63.88;100105.10;1757416;80;21433;-81
2022/06/25 06:27:14;;;;;;;3.87;2.80;;;;;;;21.80;62.82;100100.86;1717932;81;20960;-81
2022/06/25 06:29:41;;;;;;;3.77;2.98;;;;;;;21.75;62.77;100106.55;1683774;82;21028;-82
2022/06/25 06:32:08;;;;;;;4.72;2.65;;;;;;;21.77;63.06;100116.58;1722237;82;21885;-82
2022/06/25 06:34:35;;;;;;;3.42;2.70;;;;;;;21.78;62.93;100108.31;1700488;82;21041;-81
2022/06/25 06:37:01;;;;;;;5.70;2.72;;;;;;;21.78;62.99;100115.03;1708052;81;21001;-81
2022/06/25 06:39:28;;;;;;;4.65;2.58;;;;;;;21.73;63.17;100109.95;1685179;82;20985;-81
2022/06/25 06:41:54;;;;;;;2.80;2.42;;;;;;;21.74;63.04;100116.98;1711315;82;21020;-82
2022/06/25 06:44:21;;;;;;;4.03;2.87;;;;;;;21.77;63.32;100115.23;1708943;82;21942;-82
2022/06/25 06:46:47;;;;;;;3.47;2.58;;;;;;;21.85;63.59;100113.20;1711058;81;20990;-81
2022/06/25 06:49:13;;;;;;;3.17;2.60;;;;;;;21.92;63.56;100110.55;1718074;82;20989;-82
2022/06/25 06:51:40;;;;;;;3.33;2.58;;;;;;;21.98;63.50;100116.44;1730664;82;21008;-82
2022/06/25 06:54:07;;;;;;;3.85;2.50;;;;;;;21.99;63.36;100119.44;1693594;82;20961;-81
2022/06/25 06:56:33;;;;;;;5.40;2.62;;;;;;;21.96;63.43;100114.48;1698873;82;21839;-82
2022/06/25 06:59:00;;;;;;;3.42;2.70;;;;;;;21.96;63.34;100119.34;1735639;80;21014;-82
2022/06/25 07:01:27;;;;;;;4.58;2.95;;;;;;;21.99;63.42;100127.51;1748144;80;20953;-83
2022/06/25 07:03:54;;;;;;;4.62;2.83;;;;;;;21.96;63.27;100123.37;1779066;80;21003;-81
2022/06/25 07:06:20;;;;;;;4.87;2.83;;;;;;;21.92;63.35;100126.16;1726035;80;21071;-81
2022/06/25 07:08:47;;;;;;;3.85;2.60;;;;;;;21.91;63.43;100122.34;1749280;80;22456;-82
2022/06/25 07:11:29;;;;;;;4.50;2.83;;;;;;;21.94;63.75;100128.13;1748010;80;21003;-81
2022/06/25 07:14:01;;;;;;;3.02;2.72;;;;;;;21.99;63.50;100128.85;1735529;80;21024;-81
2022/06/25 07:16:29;;;;;;;3.20;2.90;;;;;;;22.02;63.35;100125.78;1737455;80;20957;-81
2022/06/25 07:18:57;;;;;;;3.30;2.67;;;;;;;22.13;63.23;100134.63;1736515;80;21005;-81
2022/06/25 07:21:24;;;;;;;4.80;2.98;;;;;;;22.19;62.90;100137.02;1742869;80;21940;-82
2022/06/25 07:23:51;;;;;;;4.55;3.15;;;;;;;22.28;62.77;100143.34;1770705;80;21039;-83
2022/06/25 07:26:18;;;;;;;4.90;2.80;;;;;;;22.41;62.72;100130.45;1740195;80;21000;-81
2022/06/25 07:28:45;;;;;;;7.72;2.70;;;;;;;22.60;62.62;100133.38;1735694;82;20961;-82
2022/06/25 07:31:11;;;;;;;4.30;3.05;;;;;;;22.81;62.44;100135.87;1740769;80;21491;-82
2022/06/25 07:33:38;;;;;;;5.97;3.30;;;;;;;22.97;61.03;100129.24;1746539;80;22367;-81
2022/06/25 07:36:05;;;;;;;5.53;3.50;;;;;;;23.06;60.70;100132.03;1744725;80;20957;-83
2022/06/25 07:38:33;;;;;;;3.67;3.10;;;;;;;23.09;59.96;100132.47;1744752;80;21066;-84
2022/06/25 07:41:01;;;;;;;4.72;3.00;;;;;;;23.20;60.41;100139.59;1736034;80;20953;-82
2022/06/25 07:43:28;;;;;;;5.05;3.00;;;;;;;23.38;60.04;100137.91;1722050;80;20956;-83
2022/06/25 07:45:55;;;;;;;3.50;3.20;;;;;;;23.61;59.64;100142.02;1730164;80;21889;-81
2022/06/25 07:48:23;;;;;;;3.45;2.87;;;;;;;23.83;59.39;100133.93;1744495;80;21079;-80
2022/06/25 07:53:34;;;;;;;4.75;3.05;;;;;;;24.13;58.07;100131.53;1730710;80;22093;-83
2022/06/25 07:56:00;;;;;;;6.62;3.75;;;;;;;24.09;57.10;100135.69;1714010;82;21047;-84
2022/06/25 07:58:28;;;;;;;4.95;3.27;;;;;;;23.87;57.24;100130.31;1702635;83;22208;-82
2022/06/25 08:00:55;;;;;;;4.10;3.35;;;;;;;23.72;58.24;100123.82;1709605;83;21075;-81
2022/06/25 08:03:21;;;;;;;6.97;3.60;;;;;;;23.67;58.58;100129.04;1738384;82;21140;-79
2022/06/25 08:05:48;;;;;;;4.17;3.25;;;;;;;23.59;58.51;100126.05;1694625;83;21117;-78
2022/06/25 08:08:14;;;;;;;4.10;3.08;;;;;;;23.51;58.71;100131.64;1709508;83;21028;-83
2022/06/25 08:10:41;;;;;;;3.47;3.17;;;;;;;23.51;58.74;100123.55;1697427;84;22286;-77
2022/06/25 08:13:08;;;;;;;4.53;2.90;;;;;;;23.47;59.09;100131.77;1710679;82;21131;-79
2022/06/25 08:15:36;;;;;;;5.12;3.30;;;;;;;23.49;59.38;100131.55;1691123;82;22330;-83
2022/06/25 08:18:02;;;;;;;4.00;3.45;;;;;;;23.48;59.15;100129.90;1681100;84;21525;-81
2022/06/25 08:20:29;;;;;;;5.72;3.35;;;;;;;23.55;59.62;100134.77;1707377;84;21073;-80
2022/06/25 08:22:55;;;;;;;4.28;3.45;;;;;;;23.64;59.14;100128.95;1708864;82;21815;-77
2022/06/25 08:25:23;;;;;;;5.92;3.15;;;;;;;23.71;58.89;100135.65;1698948;82;21028;-77
2022/06/25 08:27:53;;;;;;;4.92;2.92;;;;;;;23.78;58.58;100136.98;1752311;80;21070;-79
2022/06/25 08:30:21;;;;;;;3.75;3.00;;;;;;;23.79;58.11;100135.94;1774617;80;21019;-83
2022/06/25 08:32:48;;;;;;;3.72;2.83;;;;;;;23.84;58.42;100133.45;1727943;81;20960;-75
2022/06/25 08:35:14;;;;;;;4.45;2.85;;;;;;;23.93;58.20;100137.03;1762186;80;21631;-74
2022/06/25 08:37:44;;;;;;;3.98;2.98;;;;;;;23.99;57.95;100133.45;1734541;82;21003;-78
2022/06/25 08:40:12;;;;;;;6.12;3.10;;;;;;;24.04;57.75;100134.70;1774467;80;20996;-78
2022/06/25 08:42:38;;;;;;;3.95;3.05;;;;;;;24.08;57.83;100133.21;1790302;80;20933;-78
2022/06/25 08:45:06;;;;;;;7.67;2.77;;;;;;;24.07;57.82;100135.08;1790175;80;20944;-79
2022/06/25 08:47:33;;;;;;;4.83;3.00;;;;;;;24.08;58.00;100134.03;1789156;80;21817;-78
2022/06/25 08:49:59;;;;;;;9.80;3.15;;;;;;;24.15;58.33;100138.88;1788983;80;21300;-79
2022/06/25 08:52:29;;;;;;;5.05;3.10;;;;;;;24.29;58.21;100138.27;1755897;80;20950;-79
2022/06/25 08:54:56;;;;;;;5.08;3.12;;;;;;;24.44;58.24;100140.72;1789098;80;20949;-78
2022/06/25 08:57:22;;;;;;;5.85;2.95;;;;;;;24.59;57.14;100134.98;1754789;80;21005;-79
2022/06/25 08:59:49;;;;;;;5.28;3.10;;;;;;;24.64;56.21;100142.75;1744005;82;22539;-79
2022/06/25 09:02:16;;;;;;;4.20;2.98;;;;;;;24.70;56.57;100149.13;1743693;82;20949;-79
2022/06/25 09:04:43;;;;;;;7.12;2.90;;;;;;;24.64;55.86;100149.50;1711221;83;21052;-78
2022/06/25 09:07:15;;;;;;;5.97;3.00;;;;;;;24.63;56.20;100147.02;1743803;82;21044;-78
2022/06/25 09:09:46;;;;;;;4.70;2.85;;;;;;;24.72;56.38;100149.77;1743850;82;21009;-78
2022/06/25 09:12:14;;;;;;;4.45;2.80;;;;;;;24.89;56.35;100148.67;1743745;82;21837;-78
2022/06/25 09:14:41;;;;;;;6.10;2.58;;;;;;;25.02;56.60;100145.91;1748916;80;20940;-79
2022/06/25 09:17:14;;;;;;;6.00;2.52;;;;;;;25.18;55.51;100152.07;1746713;82;20969;-79
2022/06/25 09:19:47;;;;;;;4.80;2.45;;;;;;;25.32;55.20;100148.20;1746697;82;21008;-79
2022/06/25 09:22:20;;;;;;;6.30;2.80;;;;;;;25.48;54.93;100145.95;1746876;82;21007;-79
2022/06/25 09:24:54;;;;;;;;;;;;;;;25.60;54.67;100146.34;1719885;82;21743;-79
2022/06/25 09:27:36;;;;;;;6.92;2.67;;;;;;;25.75;55.22;100150.56;1746911;82;20142;-78
2022/06/25 09:30:14;;;;;;;7.65;2.42;;;;;;;25.90;53.72;100155.08;1754634;80;21438;-78
2022/06/25 09:32:51;;;;;;;4.35;2.42;;;;;;;25.93;52.72;100146.48;1734819;79;21006;-78
2022/06/25 09:35:45;;;;;;;5.90;2.33;;;;;;;25.91;53.00;100152.66;1729351;83;20941;-78
2022/06/25 09:38:14;;;;;;;2.15;1.95;;;;;;;26.07;53.37;100162.05;1728605;83;21815;-78
2022/06/25 09:41:00;;;;;;;3.25;2.33;;;;;;;26.23;53.12;100159.51;1729260;83;21043;-78
2022/06/25 09:43:29;;;;;;;2.95;2.22;;;;;;;26.44;52.38;100162.29;1728504;83;20996;-78
2022/06/25 09:45:59;;;;;;;2.37;1.95;;;;;;;26.62;51.82;100161.90;1729696;83;21017;-79
2022/06/25 09:48:31;;;;;;;2.65;1.90;;;;;;;26.72;50.18;100150.79;1742300;80;20968;-79
2022/06/25 09:51:23;;;;;;;3.72;2.10;;;;;;;26.60;49.98;100148.59;1746919;82;21815;-78
2022/06/25 09:53:58;;;;;;;4.30;1.98;;;;;;;26.41;49.47;100153.78;1746642;82;20981;-78
2022/06/25 09:56:28;;;;;;;6.35;1.77;;;;;;;26.21;51.28;100153.50;1746870;82;20983;-77
2022/06/25 09:58:55;;;;;;;2.17;1.80;;;;;;;26.39;52.15;100151.84;1746883;82;20949;-78
2022/06/25 10:01:26;;;;;;;2.77;1.90;;;;;;;26.47;49.69;100151.52;1746910;82;21566;-79
2022/06/25 10:03:53;;;;;;;2.20;1.85;;;;;;;26.29;49.48;100149.66;1749073;80;22456;-79
2022/06/25 10:06:21;;;;;;;3.30;1.90;;;;;;;26.20;50.42;100149.14;1780576;80;21494;-79
2022/06/25 10:08:54;;;;;;;2.50;2.00;;;;;;;26.37;50.86;100146.66;1780931;79;21024;-79
2022/06/25 10:11:27;;;;;;;2.58;1.92;;;;;;;26.59;49.15;100132.58;1779280;80;20988;-78
2022/06/25 10:13:53;;;;;;;6.50;4.22;;;;;;;26.74;50.05;100139.21;1761830;80;20994;-77
2022/06/25 10:16:24;;;;;;;2.75;1.90;;;;;;;27.01;50.88;100131.97;1753584;81;21424;-78
2022/06/25 10:18:51;;;;;;;5.53;2.00;;;;;;;27.37;48.99;100135.82;1753229;81;21484;-78
2022/06/25 10:21:19;;;;;;;6.60;2.47;;;;;;;27.60;48.88;100131.41;1745278;81;21476;-78
2022/06/25 10:23:52;;;;;;;2.72;1.90;;;;;;;27.73;48.69;100132.55;1722295;83;20958;-78
2022/06/25 10:26:19;;;;;;;2.15;1.75;;;;;;;27.71;48.01;100134.69;1722447;81;20950;-79
2022/06/25 10:28:47;;;;;;;3.25;2.12;;;;;;;27.71;48.35;100125.19;1722249;83;21897;-79
2022/06/25 10:31:18;;;;;;;4.83;2.27;;;;;;;27.73;48.10;100132.55;1722182;83;20917;-78
2022/06/25 10:33:55;;;;;;;1.80;1.70;;;;;;;27.58;47.65;100130.83;1722442;83;21483;-78
2022/06/25 10:36:46;;;;;;;17.87;3.37;;;;;;;27.58;47.65;100130.83;1722271;83;21064;-78
2022/06/25 10:39:33;;;;;;;5.45;1.95;;;;;;;27.58;48.44;100124.05;1723910;81;21021;-78
2022/06/25 10:45:07;;;;;;;3.45;1.90;;;;;;;27.55;47.59;100131.32;1722886;83;21081;-78
2022/06/25 10:47:45;;;;;;;2.85;1.87;;;;;;;27.36;47.65;100130.11;1722243;81;20970;-79
2022/06/25 10:50:26;;;;;;;6.47;1.85;;;;;;;27.14;47.36;100135.03;1722445;81;21014;-79
2022/06/25 10:53:10;;;;;;;5.72;1.90;;;;;;;26.73;47.87;100141.63;1722372;83;21018;-78
2022/06/25 10:55:55;;;;;;;6.33;2.02;;;;;;;26.41;49.02;100140.24;1723913;81;21740;-78
2022/06/25 10:58:25;;;;;;;2.83;1.98;;;;;;;26.28;50.03;100148.53;1722226;81;21066;-78
2022/06/25 11:01:00;;;;;;;3.17;1.75;;;;;;;26.25;50.60;100156.59;1722207;82;21069;-78
2022/06/25 11:03:35;;;;;;;4.90;1.92;;;;;;;26.27;50.31;100150.95;1722160;83;20969;-78
2022/06/25 11:06:32;;;;;;;4.45;2.12;;;;;;;26.33;50.36;100149.48;1722205;81;21017;-78
2022/06/25 11:09:09;;;;;;;2.87;1.67;;;;;;;26.37;50.29;100153.92;1720708;83;21835;-79
2022/06/25 11:11:36;;;;;;;1.98;1.80;;;;;;;26.39;50.31;100158.61;1722896;81;20963;-79
2022/06/25 11:14:06;;;;;;;5.33;1.80;;;;;;;26.30;50.48;100162.13;1717756;81;21401;-80
2022/06/25 11:16:32;;;;;;;3.70;1.90;;;;;;;26.21;50.55;100156.21;1744094;80;21522;-81
2022/06/25 11:19:00;;;;;;;1.92;1.72;;;;;;;26.11;50.94;100153.76;1752063;80;21404;-81
2022/06/25 11:21:38;;;;;;;29.42;26.33;;;;;;;26.06;50.58;100157.16;1745678;82;21945;-80
2022/06/25 11:24:11;;;;;;;5.58;5.08;;;;;;;26.01;51.32;100153.48;1744815;80;21060;-78
2022/06/25 11:29:32;;;;;;;3.65;2.00;;;;;;;26.35;51.16;100147.92;1736174;80;21044;-83
2022/06/25 11:31:58;;;;;;;2.95;2.10;;;;;;;26.66;51.16;100137.37;1753198;80;21024;-82
2022/06/25 11:34:34;;;;;;;2.67;1.80;;;;;;;27.12;50.96;100138.48;1744634;82;22285;-82
2022/06/25 11:37:11;;;;;;;2.30;1.60;;;;;;;27.59;50.20;100133.30;1717097;82;21012;-82
2022/06/25 11:39:40;;;;;;;4.53;1.60;;;;;;;28.03;47.48;100130.15;1708726;82;21015;-76
2022/06/25 11:42:09;;;;;;;1.67;1.50;;;;;;;28.27;47.21;100132.21;1703109;83;21042;-82
2022/06/25 11:44:51;;;;;;;3.47;1.57;;;;;;;28.69;45.92;100129.47;1694214;83;21135;-80
2022/06/25 11:47:23;;;;;;;6.72;1.77;;;;;;;28.91;44.51;100134.19;1694512;83;21915;-80
2022/06/25 11:49:51;;;;;;;2.20;1.50;;;;;;;28.91;44.51;100134.19;1693879;83;21559;-81
2022/06/25 11:52:22;;;;;;;2.50;1.60;;;;;;;29.01;44.05;100133.80;1706288;83;21038;-80
2022/06/25 11:54:49;;;;;;;1.60;1.50;;;;;;;29.12;43.65;100136.14;1701306;83;21077;-80